Time;durP1;ratioP1;P1;durP2;ratioP2;P2;SDS_P1;SDS_P2;PMS_P1;PMS_P2;Temp;Humidity;BMP_temperature;BMP_pressure;BME280_temperature;BME280_humidity;BME280_pressure;Samples;Min_cycle;Max_cycle;Signal;HPM_P1;HPM_P2
2022/08/23 00:01:19;;;;;;;3.92;3.30;;;26.20;52.00;27.30;100557.00;;;;5025333;28;20186;-39
2022/08/23 00:03:45;;;;;;;4.03;3.22;;;26.20;52.10;27.30;100555.00;;;;5040358;28;20166;-40
2022/08/23 00:06:12;;;;;;;5.68;3.40;;;26.20;52.10;27.30;100558.00;;;;5025109;28;20702;-39
2022/08/23 00:08:38;;;;;;;3.85;3.47;;;26.20;52.00;27.30;100551.00;;;;5039939;28;20284;-39
2022/08/23 00:11:04;;;;;;;3.78;3.05;;;26.20;52.10;27.30;100552.00;;;;5024985;28;20818;-39
2022/08/23 00:13:33;;;;;;;3.45;3.15;;;26.20;52.10;27.30;100553.00;;;;5025023;28;20816;-39
2022/08/23 00:15:59;;;;;;;3.97;3.53;;;26.20;52.10;27.30;100548.00;;;;5039917;28;20673;-39
2022/08/23 00:18:25;;;;;;;3.60;3.30;;;26.20;52.10;27.30;100558.00;;;;5024544;28;20204;-39
2022/08/23 00:20:51;;;;;;;3.50;3.20;;;26.10;52.10;27.30;100552.00;;;;5024608;28;20175;-40
2022/08/23 00:23:16;;;;;;;3.47;3.17;;;26.20;52.10;27.30;100560.00;;;;5024813;28;20205;-39
2022/08/23 00:25:42;;;;;;;4.40;3.10;;;26.20;52.00;27.20;100547.00;;;;5024841;28;20233;-39
2022/08/23 00:28:08;;;;;;;3.47;3.17;;;26.20;52.00;27.30;100547.00;;;;5023904;28;20225;-39
2022/08/23 00:30:35;;;;;;;4.15;3.30;;;26.10;51.90;27.20;100542.00;;;;5024939;28;20202;-39
2022/08/23 00:33:00;;;;;;;3.55;3.20;;;26.10;51.90;27.20;100544.00;;;;5024732;28;20163;-39
2022/08/23 00:35:26;;;;;;;3.83;3.20;;;26.10;51.70;27.20;100530.00;;;;5024625;28;20284;-39
2022/08/23 00:37:52;;;;;;;5.07;3.50;;;26.10;51.70;27.20;100535.00;;;;5024559;28;20241;-39
2022/08/23 00:40:18;;;;;;;3.45;3.15;;;26.10;51.70;27.20;100530.00;;;;5024957;28;20254;-40
2022/08/23 00:48:54;;;;;;;3.72;3.30;;;26.10;51.60;27.10;100522.00;;;;5024367;28;20217;-40
2022/08/23 00:51:37;;;;;;;3.75;3.35;;;26.00;51.40;27.10;100526.00;;;;5039793;28;20155;-41
2022/08/23 00:54:03;;;;;;;3.42;2.92;;;26.00;51.40;27.10;100529.00;;;;5038218;28;20656;-39
2022/08/23 00:56:32;;;;;;;3.10;2.90;;;26.00;51.30;27.00;100534.00;;;;5039453;28;20183;-39
2022/08/23 00:58:58;;;;;;;3.97;3.33;;;26.00;51.10;27.00;100529.00;;;;5038867;28;20656;-39
2022/08/23 01:01:24;;;;;;;3.45;3.05;;;26.00;51.30;27.00;100532.00;;;;5024300;28;20190;-39
2022/08/23 01:03:53;;;;;;;3.72;3.20;;;26.00;51.40;27.00;100536.00;;;;5039562;28;20175;-39
2022/08/23 01:06:26;;;;;;;3.72;3.42;;;25.90;51.60;26.90;100537.00;;;;5039051;28;20198;-39
2022/08/23 01:08:59;;;;;;;3.78;3.47;;;25.90;51.70;26.90;100541.00;;;;5038140;28;20179;-39
2022/08/23 01:11:36;;;;;;;3.92;3.53;;;25.90;51.80;26.90;100536.00;;;;5039229;28;20155;-39
2022/08/23 01:14:12;;;;;;;5.40;3.47;;;25.90;52.00;26.80;100539.00;;;;5038758;28;20159;-40
2022/08/23 01:16:51;;;;;;;4.75;3.63;;;25.80;51.90;26.80;100483.00;;;;5039349;28;20155;-39
2022/08/23 01:19:34;;;;;;;3.58;3.28;;;25.80;52.20;26.80;100545.00;;;;5046461;28;20187;-39
2022/08/23 01:22:04;;;;;;;3.70;3.40;;;25.80;52.30;26.70;100553.00;;;;5045154;28;20160;-39
2022/08/23 01:24:30;;;;;;;3.92;3.35;;;25.80;52.30;26.70;100551.00;;;;5043717;28;20226;-41
2022/08/23 01:26:56;;;;;;;3.63;3.33;;;25.80;52.30;26.70;100552.00;;;;5039852;28;20194;-38
2022/08/23 01:29:21;;;;;;;3.70;3.40;;;25.80;52.30;26.70;100554.00;;;;5039524;28;20229;-39
2022/08/23 01:31:49;;;;;;;3.33;3.03;;;25.90;52.30;26.70;100550.00;;;;5024248;28;20171;-40
2022/08/23 01:34:16;;;;;;;3.20;2.90;;;25.80;52.30;26.70;100552.00;;;;5039252;28;20210;-40
2022/08/23 01:36:43;;;;;;;4.10;3.28;;;25.80;52.50;26.70;100547.00;;;;5024505;28;20173;-40
2022/08/23 01:39:09;;;;;;;3.80;3.50;;;25.80;52.60;26.70;100554.00;;;;5039080;28;20195;-40
2022/08/23 01:41:37;;;;;;;3.60;3.30;;;25.80;52.60;26.70;100546.00;;;;5027035;28;20167;-40
2022/08/23 01:44:05;;;;;;;3.90;3.30;;;25.70;52.60;26.70;100549.00;;;;5028427;28;20194;-40
2022/08/23 01:46:31;;;;;;;3.78;3.47;;;25.70;52.60;26.60;100549.00;;;;5027754;28;20328;-40
2022/08/23 01:48:57;;;;;;;3.72;3.40;;;25.80;52.70;26.60;100549.00;;;;5042812;28;20195;-40
2022/08/23 01:51:23;;;;;;;3.80;3.50;;;25.70;52.60;26.60;100552.00;;;;5027911;28;20175;-40
2022/08/23 01:53:49;;;;;;;3.45;3.15;;;25.70;52.60;26.60;100558.00;;;;5027442;28;20238;-39
2022/08/23 01:56:18;;;;;;;4.03;3.60;;;25.70;52.50;26.60;100559.00;;;;5042944;28;20630;-40
2022/08/23 01:58:45;;;;;;;3.78;3.30;;;25.70;52.50;26.60;100558.00;;;;5042295;28;20631;-40
2022/08/23 02:01:10;;;;;;;3.85;3.30;;;25.70;52.60;26.50;100566.00;;;;5027268;28;20642;-38
2022/08/23 02:03:36;;;;;;;3.88;3.40;;;25.60;52.50;26.50;100566.00;;;;5027336;28;20241;-38
2022/08/23 02:06:02;;;;;;;3.58;3.28;;;25.60;53.20;26.50;100563.00;;;;5027577;28;20205;-39
2022/08/23 02:11:19;;;;;;;3.60;3.30;;;25.50;52.70;26.40;100569.00;;;;5027873;28;20166;-39
2022/08/23 02:13:44;;;;;;;3.38;3.08;;;25.60;52.90;26.40;100569.00;;;;5026963;28;20175;-39
2022/08/23 02:16:10;;;;;;;4.70;3.58;;;25.60;52.90;26.40;100573.00;;;;5027313;28;20766;-39
2022/08/23 02:18:36;;;;;;;4.20;3.03;;;25.50;52.80;26.40;100579.00;;;;5026999;28;20206;-38
2022/08/23 02:21:02;;;;;;;3.50;3.20;;;25.50;52.90;26.30;100565.00;;;;5027407;28;20205;-38
2022/08/23 02:23:28;;;;;;;3.50;3.20;;;25.50;52.90;26.30;100580.00;;;;5026898;28;20171;-38
2022/08/23 02:25:54;;;;;;;4.32;3.17;;;25.50;52.90;26.30;100595.00;;;;5026866;28;20281;-40
2022/08/23 02:28:21;;;;;;;3.83;3.22;;;25.50;52.90;26.30;100578.00;;;;5026982;28;20198;-40
2022/08/23 02:30:46;;;;;;;3.60;3.30;;;25.50;53.20;26.30;100576.00;;;;5027047;28;20548;-39
2022/08/23 02:33:12;;;;;;;4.20;3.30;;;25.50;53.10;26.30;100578.00;;;;5026788;28;20263;-40
2022/08/23 02:35:39;;;;;;;3.60;3.30;;;25.50;53.20;26.20;100589.00;;;;5042115;28;20167;-40
2022/08/23 02:38:06;;;;;;;3.20;3.00;;;25.50;53.20;26.20;100578.00;;;;5026559;28;20195;-39
2022/08/23 02:40:32;;;;;;;3.55;3.25;;;25.40;53.30;26.20;100590.00;;;;5026825;28;20857;-38
2022/08/23 02:42:58;;;;;;;3.40;3.10;;;25.40;53.30;26.20;100580.00;;;;5025313;28;20179;-40
2022/08/23 02:45:26;;;;;;;3.75;3.45;;;25.40;53.70;26.20;100582.00;;;;5026613;28;20207;-39
2022/08/23 02:47:51;;;;;;;3.95;3.22;;;25.40;53.70;26.20;100587.00;;;;5026465;28;20187;-40
2022/08/23 02:50:17;;;;;;;3.78;3.40;;;25.40;53.30;26.20;100587.00;;;;5026848;28;20225;-40
2022/08/23 02:52:43;;;;;;;3.97;3.58;;;25.30;53.30;26.20;100589.00;;;;5026210;28;20202;-39
2022/08/23 02:55:09;;;;;;;4.10;3.53;;;25.30;53.20;26.10;100579.00;;;;5026564;28;20262;-40
2022/08/23 02:57:35;;;;;;;4.07;3.20;;;25.30;53.20;26.10;100588.00;;;;5026125;28;20174;-40
2022/08/23 03:00:01;;;;;;;3.50;3.20;;;25.30;53.20;26.10;100580.00;;;;5026698;28;20168;-39
2022/08/23 03:02:26;;;;;;;4.65;3.50;;;25.30;53.20;26.10;100593.00;;;;5026378;28;20253;-40
2022/08/23 03:04:52;;;;;;;3.95;3.33;;;25.30;53.30;26.10;100588.00;;;;5041439;28;20202;-40
2022/08/23 03:07:18;;;;;;;3.50;3.20;;;25.30;53.30;26.00;100589.00;;;;5026036;28;20171;-40
2022/08/23 03:09:44;;;;;;;3.22;3.00;;;25.20;53.50;26.00;100579.00;;;;5026172;28;20535;-39
2022/08/23 03:12:09;;;;;;;4.18;3.50;;;25.30;53.50;26.00;100587.00;;;;5026138;28;20171;-39
2022/08/23 03:14:36;;;;;;;3.50;3.20;;;25.20;54.00;26.00;100588.00;;;;5026135;28;20250;-39
2022/08/23 03:17:03;;;;;;;3.60;3.30;;;25.20;53.50;26.00;100587.00;;;;5025565;28;20163;-40
2022/08/23 03:19:29;;;;;;;3.83;3.50;;;25.20;53.30;25.90;100589.00;;;;5025900;28;20182;-39
2022/08/23 03:21:55;;;;;;;6.38;3.55;;;25.20;53.30;26.00;100596.00;;;;5026351;28;20807;-39
2022/08/23 03:24:21;;;;;;;4.15;3.15;;;25.20;53.60;25.90;100593.00;;;;5026235;28;20202;-40
2022/08/23 03:26:47;;;;;;;7.15;3.40;;;25.10;53.50;25.90;100537.00;;;;5025672;28;20205;-40
2022/08/23 03:29:13;;;;;;;3.85;3.30;;;25.20;53.90;25.90;100582.00;;;;5025661;28;20301;-40
2022/08/23 03:31:39;;;;;;;3.55;3.25;;;25.10;53.50;25.90;100579.00;;;;5041336;28;20229;-40
2022/08/23 03:34:05;;;;;;;8.57;3.67;;;25.20;53.50;25.90;100590.00;;;;5025961;28;20174;-40
2022/08/23 03:36:31;;;;;;;4.85;3.33;;;25.10;53.30;25.90;100597.00;;;;5024537;28;20178;-40
2022/08/23 03:38:57;;;;;;;4.05;3.30;;;25.10;53.40;25.90;100595.00;;;;5025492;28;20202;-40
2022/08/23 03:41:22;;;;;;;3.40;3.10;;;25.10;53.30;25.80;100602.00;;;;5025357;28;20170;-40
2022/08/23 03:43:49;;;;;;;3.50;3.20;;;25.10;53.20;25.80;100602.00;;;;5025551;28;20213;-40
2022/08/23 03:46:22;;;;;;;3.45;3.15;;;25.00;53.20;25.80;100603.00;;;;5025247;28;20351;-39
2022/08/23 03:48:58;;;;;;;3.67;3.38;;;25.00;53.20;25.80;100606.00;;;;5025577;28;20274;-39
2022/08/23 03:51:24;;;;;;;4.03;3.63;;;25.00;53.30;25.80;100615.00;;;;5040705;28;20261;-39
2022/08/23 03:53:50;;;;;;;3.80;3.45;;;25.00;53.20;25.80;100611.00;;;;5026005;28;20190;-40
2022/08/23 03:56:28;;;;;;;3.95;3.55;;;25.00;53.30;25.80;100616.00;;;;5040279;28;20175;-39
2022/08/23 03:58:54;;;;;;;5.25;3.40;;;25.00;53.30;25.70;100618.00;;;;5024941;28;20560;-39
2022/08/23 04:01:20;;;;;;;4.30;3.67;;;25.00;53.30;25.70;100624.00;;;;5025263;28;20736;-39
2022/08/23 04:03:47;;;;;;;4.00;3.60;;;25.00;53.30;25.70;100623.00;;;;5025893;28;20179;-40
2022/08/23 04:06:13;;;;;;;3.70;3.40;;;25.00;53.30;25.70;100626.00;;;;5026014;28;20225;-40
2022/08/23 04:08:39;;;;;;;3.58;3.20;;;24.90;53.20;25.70;100633.00;;;;5026101;28;20187;-39
2022/08/23 04:11:05;;;;;;;3.72;3.35;;;24.90;53.20;25.60;100635.00;;;;5026033;28;20171;-40
2022/08/23 04:13:30;;;;;;;3.55;3.25;;;24.90;53.30;25.60;100638.00;;;;5026490;28;20555;-40
2022/08/23 04:15:57;;;;;;;4.97;3.15;;;24.90;53.20;25.60;100643.00;;;;5026290;28;20179;-39
2022/08/23 04:18:22;;;;;;;3.80;3.50;;;24.90;53.30;25.60;100645.00;;;;5041350;28;20282;-39
2022/08/23 04:20:49;;;;;;;4.10;3.20;;;24.90;53.20;25.60;100635.00;;;;5023802;28;20213;-39
2022/08/23 04:23:14;;;;;;;3.47;3.17;;;24.80;53.20;25.60;100643.00;;;;5041514;28;20179;-40
2022/08/23 04:25:43;;;;;;;3.85;3.45;;;24.80;53.10;25.60;100640.00;;;;5025693;28;20229;-38
2022/08/23 04:28:09;;;;;;;3.75;3.45;;;24.80;53.30;25.50;100644.00;;;;5026159;28;20217;-38
2022/08/23 04:30:34;;;;;;;3.90;3.50;;;24.80;53.30;25.50;100650.00;;;;5026014;28;20171;-40
2022/08/23 04:33:00;;;;;;;4.53;3.53;;;24.80;53.30;25.50;100641.00;;;;5026033;28;20256;-40
2022/08/23 04:35:26;;;;;;;3.88;3.42;;;24.80;53.40;25.50;100656.00;;;;5041406;28;20269;-39
2022/08/23 04:37:52;;;;;;;3.70;3.40;;;24.70;53.30;25.50;100667.00;;;;5028449;28;20186;-50
2022/08/23 04:43:02;;;;;;;3.70;3.40;;;24.70;53.30;25.40;100662.00;;;;5036567;28;20180;-39
2022/08/23 04:45:28;;;;;;;4.15;3.55;;;24.70;53.10;25.40;100670.00;;;;5028135;28;20199;-40
2022/08/23 04:47:54;;;;;;;3.80;3.50;;;24.70;53.00;25.40;100667.00;;;;5026096;28;20194;-39
2022/08/23 04:50:20;;;;;;;5.22;3.35;;;24.60;53.10;25.40;100672.00;;;;5025097;28;20182;-39
2022/08/23 04:52:46;;;;;;;6.65;3.38;;;24.60;53.20;25.30;100662.00;;;;5025582;28;20178;-40
2022/08/23 04:55:13;;;;;;;3.50;3.20;;;24.70;53.10;25.30;100676.00;;;;5024708;28;20187;-39
2022/08/23 04:57:41;;;;;;;4.32;3.33;;;24.60;53.00;25.30;100674.00;;;;5025374;28;20800;-40
2022/08/23 05:00:09;;;;;;;4.07;3.50;;;24.70;53.00;25.30;100674.00;;;;5025624;28;20171;-40
2022/08/23 05:02:35;;;;;;;5.70;3.28;;;24.60;53.00;25.30;100682.00;;;;5025265;28;20277;-39
2022/08/23 05:05:01;;;;;;;5.00;3.50;;;24.60;53.00;25.30;100684.00;;;;5040922;28;20191;-38
2022/08/23 05:07:28;;;;;;;4.22;3.80;;;24.60;53.10;25.30;100677.00;;;;5025440;28;20201;-39
2022/08/23 05:09:53;;;;;;;3.97;3.58;;;24.70;53.20;25.30;100684.00;;;;5025649;28;20167;-38
2022/08/23 05:12:19;;;;;;;4.70;3.45;;;24.60;53.10;25.30;100688.00;;;;5025536;28;20163;-39
2022/08/23 05:14:45;;;;;;;3.42;3.13;;;24.60;53.10;25.30;100690.00;;;;5027159;28;20184;-39
2022/08/23 05:17:11;;;;;;;3.88;3.55;;;24.60;53.10;25.20;100694.00;;;;5029208;28;20167;-39
2022/08/23 05:19:36;;;;;;;4.37;3.60;;;24.50;53.10;25.20;100695.00;;;;5029325;28;20190;-39
2022/08/23 05:22:02;;;;;;;4.13;3.72;;;24.60;53.20;25.20;100705.00;;;;5029320;28;20224;-38
2022/08/23 05:24:28;;;;;;;4.00;3.60;;;24.50;53.10;25.20;100698.00;;;;5029261;28;20171;-40
2022/08/23 05:26:54;;;;;;;4.20;3.80;;;24.50;53.20;25.20;100697.00;;;;5029655;28;20256;-38
2022/08/23 05:29:20;;;;;;;4.00;3.60;;;24.50;53.40;25.20;100678.00;;;;5029809;28;20826;-38
2022/08/23 05:31:46;;;;;;;4.13;3.72;;;24.50;53.20;25.20;100704.00;;;;5044266;28;20175;-39
2022/08/23 05:34:11;;;;;;;3.67;3.30;;;24.50;53.10;25.20;100706.00;;;;5028966;28;20169;-40
2022/08/23 05:36:37;;;;;;;3.87;3.57;;;24.50;53.00;25.10;100717.00;;;;5029031;28;20186;-39
2022/08/23 05:39:04;;;;;;;3.90;3.60;;;24.40;53.00;25.10;100711.00;;;;5045434;28;20273;-40
2022/08/23 05:41:30;;;;;;;7.00;3.85;;;24.40;53.20;25.10;100715.00;;;;5033252;28;20775;-39
2022/08/23 05:43:56;;;;;;;5.97;3.55;;;24.50;53.20;25.10;100722.00;;;;5032851;28;20175;-39
2022/08/23 05:46:22;;;;;;;3.90;3.60;;;24.40;53.10;25.10;100720.00;;;;5029066;28;20225;-39
2022/08/23 05:48:49;;;;;;;4.28;3.60;;;24.40;53.00;25.10;100720.00;;;;5028294;28;20198;-39
2022/08/23 05:51:17;;;;;;;4.00;3.70;;;24.40;53.10;25.10;100720.00;;;;5029005;28;20152;-39
2022/08/23 05:53:43;;;;;;;5.68;3.78;;;24.40;53.10;25.00;100716.00;;;;5029216;28;20515;-39
2022/08/23 05:56:18;;;;;;;10.32;3.50;;;24.40;53.20;25.00;100721.00;;;;5028665;28;20182;-39
2022/08/23 05:58:44;;;;;;;5.13;3.73;;;24.30;54.30;24.90;100726.00;;;;5028490;28;20680;-39
2022/08/23 06:01:10;;;;;;;5.27;3.37;;;24.30;53.80;24.90;100728.00;;;;5028350;28;20258;-39
2022/08/23 06:03:36;;;;;;;4.53;3.30;;;24.30;53.70;24.70;100727.00;;;;5028548;28;20854;-39
2022/08/23 06:06:01;;;;;;;4.27;3.60;;;24.30;53.50;24.90;100736.00;;;;5028497;28;20282;-39
2022/08/23 06:08:27;;;;;;;6.17;4.07;;;24.30;53.70;24.90;100727.00;;;;5028559;28;20206;-40
2022/08/23 06:11:07;;;;;;;4.00;3.60;;;24.30;53.60;24.90;100736.00;;;;5043330;28;20250;-39
2022/08/23 06:13:43;;;;;;;3.87;3.50;;;24.30;53.70;24.80;100734.00;;;;5028884;28;20186;-39
2022/08/23 06:16:10;;;;;;;4.77;3.77;;;24.30;53.70;24.80;100734.00;;;;5028431;28;20242;-39
2022/08/23 06:18:36;;;;;;;3.97;3.67;;;24.20;53.70;24.80;100748.00;;;;5028275;28;20187;-39
2022/08/23 06:21:07;;;;;;;4.87;3.70;;;24.10;53.60;24.80;100742.00;;;;5025219;28;20175;-39
2022/08/23 06:23:34;;;;;;;7.40;3.90;;;24.10;53.50;24.90;100741.00;;;;4960441;28;20793;-39
2022/08/23 06:26:00;;;;;;;4.90;3.90;;;24.10;53.60;24.90;100741.00;;;;5006735;28;20211;-39
2022/08/23 06:28:28;;;;;;;5.00;4.00;;;24.20;53.90;24.90;100737.00;;;;5007990;28;20192;-39
2022/08/23 06:31:00;;;;;;;4.83;3.90;;;24.20;53.90;24.90;100738.00;;;;5023301;28;20850;-39
2022/08/23 06:33:28;;;;;;;6.33;4.13;;;24.20;54.00;24.90;100736.00;;;;5008437;28;20152;-39
2022/08/23 06:36:09;;;;;;;5.80;4.30;;;24.20;54.00;24.90;100740.00;;;;5008344;28;20831;-38
2022/08/23 06:38:37;;;;;;;5.67;4.00;;;24.20;54.10;24.90;100745.00;;;;5008183;28;20196;-39
2022/08/23 06:41:09;;;;;;;8.73;4.37;;;24.20;54.10;24.90;100742.00;;;;5018321;28;20268;-39
2022/08/23 06:43:35;;;;;;;5.90;4.10;;;24.20;54.00;24.90;100751.00;;;;5027765;28;20221;-39
2022/08/23 06:46:17;;;;;;;6.47;3.90;;;24.10;54.20;24.90;100742.00;;;;5027568;28;20198;-39
2022/08/23 06:48:43;;;;;;;8.43;3.43;;;24.10;54.10;24.80;100745.00;;;;5027419;28;20217;-39
2022/08/23 06:51:20;;;;;;;5.50;3.60;;;24.20;53.90;24.80;100747.00;;;;5025863;28;20941;-39
2022/08/23 06:53:46;;;;;;;7.63;3.80;;;24.20;54.00;24.80;100751.00;;;;5026798;28;20193;-37
2022/08/23 06:56:12;;;;;;;7.33;3.77;;;24.10;53.80;24.80;100755.00;;;;5027480;28;20174;-39
2022/08/23 06:58:40;;;;;;;5.07;3.50;;;24.10;54.00;24.80;100756.00;;;;5025688;28;20198;-39
2022/08/23 07:01:25;;;;;;;4.97;3.40;;;24.10;54.00;24.80;100752.00;;;;5026071;28;20217;-38
2022/08/23 07:03:55;;;;;;;5.60;3.70;;;24.10;54.20;24.80;100761.00;;;;5027450;28;20217;-38
2022/08/23 07:06:23;;;;;;;4.17;3.30;;;24.10;54.10;24.80;100763.00;;;;5009678;28;20210;-38
2022/08/23 07:08:50;;;;;;;4.77;3.50;;;24.10;53.90;24.80;100764.00;;;;5025932;28;20210;-37
2022/08/23 07:11:17;;;;;;;3.50;3.20;;;24.10;54.10;24.80;100760.00;;;;5027335;28;20194;-40
2022/08/23 07:13:44;;;;;;;4.93;3.10;;;24.10;54.80;24.80;100748.00;;;;5026228;28;20701;-39
2022/08/23 07:16:10;;;;;;;4.97;3.53;;;24.10;54.20;24.70;100762.00;;;;5006251;28;20210;-39
2022/08/23 07:18:37;;;;;;;3.80;3.17;;;24.00;54.00;24.80;100764.00;;;;5007399;28;20196;-39
2022/08/23 07:21:05;;;;;;;3.87;3.37;;;24.00;54.10;24.80;100754.00;;;;5007496;28;20163;-39
2022/08/23 07:23:33;;;;;;;4.27;3.40;;;24.10;54.50;24.70;100775.00;;;;4937223;28;20172;-39
2022/08/23 07:26:01;;;;;;;4.27;2.90;;;24.00;53.70;24.70;100768.00;;;;5006861;28;20290;-38
2022/08/23 07:28:27;;;;;;;3.83;2.90;;;24.00;53.70;24.70;100767.00;;;;5006619;28;20187;-38
2022/08/23 07:31:12;;;;;;;3.47;2.80;;;24.00;53.70;24.70;100776.00;;;;5006660;28;20226;-38
2022/08/23 07:33:38;;;;;;;3.20;2.63;;;24.00;53.50;24.70;100771.00;;;;5006028;28;20159;-38
2022/08/23 07:36:08;;;;;;;4.23;3.00;;;24.00;53.40;24.70;100771.00;;;;5005656;28;20183;-38
2022/08/23 07:38:35;;;;;;;3.17;2.87;;;24.00;53.00;24.60;100776.00;;;;5006191;28;20481;-38
2022/08/23 07:41:04;;;;;;;3.17;2.87;;;24.00;52.90;24.60;100783.00;;;;5025084;28;20233;-38
2022/08/23 07:43:32;;;;;;;3.70;2.80;;;24.00;52.70;24.60;100777.00;;;;5009578;28;20179;-38
2022/08/23 07:45:59;;;;;;;3.10;2.80;;;24.00;52.70;24.60;100789.00;;;;5025019;28;20639;-38
2022/08/23 07:48:25;;;;;;;3.20;2.77;;;24.00;52.70;24.60;100794.00;;;;5026379;28;20199;-38
2022/08/23 07:50:57;;;;;;;3.00;2.60;;;24.10;52.80;24.60;100779.00;;;;5025434;28;20216;-37
2022/08/23 07:53:26;;;;;;;3.73;2.80;;;24.10;52.60;24.60;100781.00;;;;5025435;28;20155;-37
2022/08/23 07:55:52;;;;;;;5.10;2.83;;;24.10;52.30;24.60;100784.00;;;;5009027;28;20641;-38
2022/08/23 07:58:20;;;;;;;4.73;2.90;;;24.10;52.10;24.60;100792.00;;;;5025637;28;20629;-38
2022/08/23 08:00:48;;;;;;;3.83;2.80;;;24.10;51.70;24.60;100778.00;;;;5026084;28;20261;-39
2022/08/23 08:03:16;;;;;;;4.53;2.90;;;24.10;51.50;24.60;100793.00;;;;5024863;28;20565;-39
2022/08/23 08:05:42;;;;;;;2.90;2.70;;;24.10;51.80;24.60;100784.00;;;;5025660;28;20198;-39
2022/08/23 08:08:09;;;;;;;3.90;3.20;;;24.10;52.00;24.60;100782.00;;;;5024614;28;20195;-40
2022/08/23 08:10:43;;;;;;;4.17;2.83;;;24.10;51.80;24.60;100797.00;;;;5102518;27;20617;-38
2022/08/23 08:13:10;;;;;;;2.90;2.70;;;24.10;51.90;24.60;100782.00;;;;5083351;28;20218;-39
2022/08/23 08:15:40;;;;;;;5.07;3.50;;;24.00;51.90;24.60;100797.00;;;;5083164;28;20165;-39
2022/08/23 08:18:09;;;;;;;3.30;3.00;;;24.00;51.90;24.60;100790.00;;;;5073338;28;20737;-40
2022/08/23 08:20:36;;;;;;;3.50;3.20;;;24.10;52.20;24.60;100787.00;;;;5102329;28;20192;-40
2022/08/23 08:23:03;;;;;;;5.80;3.30;;;24.10;52.80;24.60;100784.00;;;;4951851;28;21951;-39
2022/08/23 08:25:32;;;;;;;4.97;3.23;;;24.10;51.90;24.60;100791.00;;;;5081372;28;20612;-40
2022/08/23 08:27:59;;;;;;;3.77;3.00;;;24.10;51.90;24.70;100775.00;;;;5065140;28;20181;-39
2022/08/23 08:30:26;;;;;;;5.53;3.20;;;24.20;51.90;24.70;100788.00;;;;5081188;28;20250;-38
2022/08/23 08:32:52;;;;;;;4.40;3.40;;;24.10;51.90;24.70;100780.00;;;;5083132;28;20476;-38
2022/08/23 08:35:18;;;;;;;4.50;3.80;;;24.20;52.20;24.70;100780.00;;;;5080679;28;20181;-39
2022/08/23 08:37:46;;;;;;;4.87;3.30;;;24.20;52.10;24.70;100777.00;;;;5082246;28;20177;-38
2022/08/23 08:40:12;;;;;;;4.57;3.23;;;24.20;51.70;24.70;100773.00;;;;5082162;28;20169;-38
2022/08/23 08:43:21;;;;;;;3.47;3.10;;;24.20;51.80;24.80;100794.00;;;;5081286;28;20176;-39
2022/08/23 08:46:21;;;;;;;5.17;3.40;;;24.20;51.90;24.70;100788.00;;;;5090384;28;20181;-39
2022/08/23 08:48:52;;;;;;;3.57;3.23;;;24.20;52.00;24.70;100773.00;;;;5081080;28;20196;-40
2022/08/23 08:51:52;;;;;;;3.70;3.27;;;24.20;52.30;24.80;100783.00;;;;5066009;28;20165;-39
2022/08/23 08:54:23;;;;;;;5.05;3.30;;;24.20;52.60;24.70;100794.00;;;;5081932;28;20195;-39
2022/08/23 08:56:52;;;;;;;4.13;3.33;;;24.30;52.10;24.70;100792.00;;;;5065287;28;20172;-39
2022/08/23 08:59:23;;;;;;;3.73;3.40;;;24.30;52.30;24.80;100795.00;;;;5064264;28;20185;-40
2022/08/23 09:01:48;;;;;;;3.57;3.27;;;24.20;51.80;24.80;100784.00;;;;5064083;28;20268;-40
2022/08/23 09:04:14;;;;;;;4.03;3.20;;;24.30;52.20;24.80;100780.00;;;;5080920;28;20184;-40
2022/08/23 09:06:48;;;;;;;4.23;3.37;;;24.30;52.60;24.80;100784.00;;;;5082182;28;20176;-39
2022/08/23 09:09:52;;;;;;;4.17;3.10;;;24.40;52.70;24.80;100768.00;;;;5081721;28;20258;-39
2022/08/23 09:12:26;;;;;;;4.90;3.20;;;24.40;52.90;24.90;100779.00;;;;5080655;28;20153;-40
2022/08/23 09:15:04;;;;;;;3.70;3.20;;;24.50;53.20;24.90;100790.00;;;;5080802;28;20488;-40
2022/08/23 09:17:46;;;;;;;6.03;3.30;;;24.40;52.70;24.90;100787.00;;;;5080145;28;20246;-40
2022/08/23 09:20:14;;;;;;;3.93;3.20;;;24.50;52.90;24.90;100791.00;;;;5078657;28;20407;-39
2022/08/23 09:22:52;;;;;;;5.30;3.53;;;24.40;52.90;24.80;100763.00;;;;5060981;28;20201;-39
2022/08/23 09:25:20;;;;;;;4.73;3.50;;;24.50;52.00;25.00;100785.00;;;;5076790;28;20680;-39
2022/08/23 09:27:46;;;;;;;6.63;3.30;;;24.50;52.20;25.00;100795.00;;;;5088086;28;20477;-40
2022/08/23 09:30:14;;;;;;;5.00;3.63;;;24.50;51.70;25.00;100787.00;;;;5088242;28;20672;-40
2022/08/23 09:32:43;;;;;;;5.13;3.45;;;24.50;52.20;25.00;100800.00;;;;5086969;28;20177;-39
2022/08/23 09:35:21;;;;;;;4.33;3.53;;;24.60;52.50;25.00;100789.00;;;;5088193;28;20168;-40
2022/08/23 09:37:53;;;;;;;5.23;3.97;;;24.50;52.40;25.00;100792.00;;;;5088101;28;20191;-38
2022/08/23 09:40:37;;;;;;;5.57;4.10;;;24.60;52.10;25.10;100790.00;;;;5088913;28;20173;-39
2022/08/23 09:43:11;;;;;;;5.00;3.57;;;24.60;51.50;25.10;100784.00;;;;5087072;28;20180;-40
2022/08/23 09:46:00;;;;;;;5.63;3.60;;;24.60;51.60;25.10;100788.00;;;;5088586;28;20153;-40
2022/08/23 09:48:37;;;;;;;5.00;3.53;;;24.70;51.50;25.10;100785.00;;;;5087061;28;20208;-40
2022/08/23 09:51:16;;;;;;;6.83;3.67;;;24.60;52.20;25.10;100782.00;;;;5065434;28;20705;-40
2022/08/23 09:54:02;;;;;;;5.50;3.70;;;24.60;52.30;25.10;100780.00;;;;5058394;28;20645;-40
2022/08/23 09:56:39;;;;;;;6.35;3.83;;;24.70;52.20;25.10;100782.00;;;;5065374;28;20176;-41
2022/08/23 09:59:24;;;;;;;5.40;3.65;;;24.70;51.90;25.20;100778.00;;;;5069562;28;20192;-39
2022/08/23 10:01:50;;;;;;;7.20;4.30;;;24.80;51.20;25.20;100778.00;;;;5069843;28;20158;-38
2022/08/23 10:04:38;;;;;;;5.28;3.63;;;24.80;51.20;25.20;100780.00;;;;5070680;28;20161;-38
2022/08/23 10:07:51;;;;;;;6.20;3.60;;;24.80;51.80;25.20;100774.00;;;;5070616;28;20181;-40
2022/08/23 10:10:42;;;;;;;4.93;3.85;;;24.80;52.40;25.30;100773.00;;;;5063384;28;20237;-38
2022/08/23 10:13:08;;;;;;;6.72;3.90;;;25.00;52.00;25.30;100770.00;;;;5069295;28;20650;-39
2022/08/23 10:15:59;;;;;;;5.85;3.88;;;25.00;51.40;25.30;100775.00;;;;5068908;28;20166;-39
2022/08/23 10:18:53;;;;;;;5.13;3.65;;;25.00;51.90;25.40;100767.00;;;;5049052;28;20545;-39
2022/08/23 10:21:47;;;;;;;5.53;4.13;;;25.10;52.30;25.40;100773.00;;;;5049448;28;20208;-39
2022/08/23 10:24:44;;;;;;;4.20;3.63;;;25.10;52.10;25.40;100775.00;;;;5020261;28;20208;-39
2022/08/23 10:30:31;;;;;;;4.68;3.78;;;25.20;52.40;25.50;100777.00;;;;5090012;28;20232;-39
2022/08/23 10:33:25;;;;;;;7.80;4.15;;;25.30;52.40;25.60;100773.00;;;;5072600;28;20758;-40
2022/08/23 10:36:15;;;;;;;7.70;4.00;;;25.40;51.40;25.60;100765.00;;;;5073581;28;20157;-40
2022/08/23 10:38:45;;;;;;;7.57;4.35;;;25.50;50.80;25.70;100759.00;;;;5075437;28;20290;-40
2022/08/23 10:41:36;;;;;;;6.27;3.80;;;25.50;50.40;25.70;100765.00;;;;5088719;28;20172;-40
2022/08/23 10:44:26;;;;;;;9.13;4.20;;;25.60;50.20;25.80;100705.00;;;;5090153;28;20189;-40
2022/08/23 10:47:20;;;;;;;8.03;3.90;;;25.60;50.00;25.80;100759.00;;;;5089527;28;20173;-39
2022/08/23 10:49:50;;;;;;;6.70;4.20;;;25.60;50.50;25.80;100761.00;;;;5090106;28;20208;-39
2022/08/23 10:52:31;;;;;;;6.80;3.72;;;25.60;50.70;25.90;100765.00;;;;5072459;28;20177;-39
2022/08/23 10:55:16;;;;;;;8.32;3.95;;;25.60;50.90;25.90;100759.00;;;;5074880;28;20189;-38
2022/08/23 10:57:42;;;;;;;6.63;3.90;;;25.60;51.30;25.90;100753.00;;;;5103751;28;20181;-40
2022/08/23 11:00:19;;;;;;;7.32;4.00;;;25.70;50.60;26.00;100765.00;;;;5088631;28;20302;-40
2022/08/23 11:02:51;;;;;;;4.53;4.05;;;25.80;48.70;26.10;100762.00;;;;5073356;28;20272;-40
2022/08/23 11:05:29;;;;;;;5.30;3.97;;;25.90;48.30;26.10;100759.00;;;;5089676;28;20173;-40
2022/08/23 11:08:29;;;;;;;6.25;3.80;;;26.00;47.90;26.20;100750.00;;;;5072566;28;20289;-40
2022/08/23 11:10:55;;;;;;;8.98;4.18;;;26.00;47.30;26.20;100750.00;;;;5088339;28;20185;-40
2022/08/23 11:13:26;;;;;;;6.50;3.90;;;26.00;47.70;26.20;100757.00;;;;5089775;28;20202;-40
2022/08/23 11:16:13;;;;;;;6.82;4.20;;;26.00;48.30;26.20;100759.00;;;;5090740;28;20229;-39